Time;durP1;ratioP1;P1;durP2;ratioP2;P2;SDS_P1;SDS_P2;PMS_P1;PMS_P2;Temp;Humidity;BMP_temperature;BMP_pressure;BME280_temperature;BME280_humidity;BME280_pressure;Samples;Min_cycle;Max_cycle;Signal;HPM_P1;HPM_P2
2023/02/26 00:01:31;;;;;;;0.70;0.40;;;3.50;99.90;;;;;;5076948;28;20446;-56
2023/02/26 00:04:02;;;;;;;1.40;0.50;;;3.40;99.90;;;;;;5076735;28;20431;-54
2023/02/26 00:06:31;;;;;;;1.73;0.60;;;3.30;99.90;;;;;;5077341;28;20424;-56
2023/02/26 00:08:58;;;;;;;0.90;0.50;;;3.40;99.90;;;;;;5076630;28;20420;-51
2023/02/26 00:11:26;;;;;;;1.00;0.50;;;3.40;99.90;;;;;;5076982;28;20416;-55
2023/02/26 00:13:53;;;;;;;0.80;0.50;;;3.30;99.90;;;;;;5076630;28;20820;-54
2023/02/26 00:16:28;;;;;;;1.90;0.50;;;3.10;99.90;;;;;;5076045;28;20457;-54
2023/02/26 00:18:55;;;;;;;1.60;0.60;;;3.00;99.90;;;;;;5075353;28;20465;-53
2023/02/26 00:21:25;;;;;;;1.20;0.50;;;3.20;99.90;;;;;;5075539;28;20442;-55
2023/02/26 00:23:53;;;;;;;0.95;0.50;;;3.20;99.90;;;;;;5074669;28;20485;-54
2023/02/26 00:26:20;;;;;;;0.90;0.50;;;3.30;99.90;;;;;;5075555;28;20420;-52
2023/02/26 00:28:48;;;;;;;0.75;0.50;;;3.30;99.90;;;;;;5075912;28;20415;-53
2023/02/26 00:31:19;;;;;;;1.00;0.40;;;3.30;99.90;;;;;;5075263;28;20431;-54
2023/02/26 00:33:47;;;;;;;0.90;0.50;;;3.10;99.90;;;;;;5076866;28;20420;-54
2023/02/26 00:36:21;;;;;;;0.90;0.50;;;3.30;99.90;;;;;;5074979;28;20434;-57
2023/02/26 00:39:00;;;;;;;1.00;0.40;;;3.30;99.90;;;;;;5075887;28;20427;-57
2023/02/26 00:41:28;;;;;;;1.08;0.57;;;3.30;99.90;;;;;;5077127;28;20867;-57
2023/02/26 00:43:56;;;;;;;0.80;0.50;;;3.40;99.90;;;;;;5076536;28;20426;-57
2023/02/26 00:46:30;;;;;;;0.80;0.50;;;3.50;99.90;;;;;;5077007;28;20485;-56
2023/02/26 00:49:03;;;;;;;1.20;0.40;;;3.40;99.90;;;;;;5076480;28;20843;-55
2023/02/26 00:51:35;;;;;;;0.70;0.40;;;3.00;99.90;;;;;;5075742;28;20416;-51
2023/02/26 00:54:13;;;;;;;0.70;0.40;;;2.90;99.90;;;;;;5075476;28;20423;-50
2023/02/26 00:56:40;;;;;;;1.10;0.50;;;2.70;99.90;;;;;;5074371;28;20435;-52
2023/02/26 00:59:07;;;;;;;1.50;0.50;;;2.60;99.90;;;;;;5076229;28;20420;-52
2023/02/26 01:01:34;;;;;;;0.90;0.50;;;2.90;99.90;;;;;;5075974;28;20477;-53
2023/02/26 01:04:02;;;;;;;2.10;0.52;;;3.30;99.90;;;;;;5075638;28;20419;-56
2023/02/26 01:06:33;;;;;;;1.35;0.50;;;3.20;99.90;;;;;;5075460;28;20415;-52
2023/02/26 01:09:05;;;;;;;0.90;0.40;;;3.30;99.90;;;;;;5075582;28;20416;-55
2023/02/26 01:11:35;;;;;;;1.45;0.50;;;3.30;99.90;;;;;;5076615;28;20885;-52
2023/02/26 01:14:03;;;;;;;0.70;0.40;;;3.20;99.90;;;;;;5076141;28;20426;-55
2023/02/26 01:16:35;;;;;;;0.60;0.40;;;3.10;99.90;;;;;;5075470;28;20735;-56
2023/02/26 01:19:12;;;;;;;0.90;0.50;;;3.10;99.90;;;;;;5075697;28;20826;-54
2023/02/26 01:21:46;;;;;;;1.25;0.43;;;3.20;99.90;;;;;;5076588;28;20427;-56
2023/02/26 01:24:16;;;;;;;1.08;0.40;;;3.10;99.90;;;;;;5076362;28;20434;-56
2023/02/26 01:26:48;;;;;;;1.55;0.60;;;2.80;99.90;;;;;;5076020;28;20879;-56
2023/02/26 01:29:16;;;;;;;0.98;0.50;;;2.70;99.90;;;;;;5075673;28;20743;-55
2023/02/26 01:31:50;;;;;;;1.20;0.50;;;2.70;99.90;;;;;;5076041;28;20430;-58
2023/02/26 01:34:22;;;;;;;1.00;0.50;;;2.70;99.90;;;;;;5075928;28;20777;-54
2023/02/26 01:36:56;;;;;;;0.80;0.50;;;2.90;99.90;;;;;;5075423;28;20435;-58
2023/02/26 01:39:32;;;;;;;2.17;0.50;;;2.80;99.90;;;;;;5075275;28;20427;-56
2023/02/26 01:42:07;;;;;;;1.10;0.60;;;2.50;99.90;;;;;;5074154;28;20862;-55
2023/02/26 01:44:40;;;;;;;1.00;0.50;;;2.50;99.90;;;;;;5074617;28;20431;-57
2023/02/26 01:47:17;;;;;;;1.30;0.50;;;2.40;99.90;;;;;;5075146;28;20858;-56
2023/02/26 01:49:45;;;;;;;1.50;0.50;;;2.30;99.90;;;;;;5073991;28;20435;-57
2023/02/26 01:52:48;;;;;;;0.93;0.50;;;2.20;99.90;;;;;;5074841;28;20416;-54
2023/02/26 01:55:19;;;;;;;0.80;0.47;;;2.10;99.90;;;;;;5044297;28;20870;-55
2023/02/26 01:57:48;;;;;;;1.27;0.50;;;2.20;99.90;;;;;;5074981;28;20438;-57
2023/02/26 02:00:17;;;;;;;1.00;0.50;;;2.30;99.90;;;;;;5073328;28;20823;-56
2023/02/26 02:02:45;;;;;;;0.80;0.40;;;2.30;99.90;;;;;;5074082;28;20485;-55
2023/02/26 02:05:16;;;;;;;0.77;0.50;;;2.20;99.90;;;;;;5074422;28;20432;-56
2023/02/26 02:07:43;;;;;;;1.10;0.50;;;1.90;99.90;;;;;;5075087;28;20419;-56
2023/02/26 02:10:11;;;;;;;0.90;0.40;;;1.80;99.90;;;;;;5074538;28;20436;-57
2023/02/26 02:12:47;;;;;;;0.90;0.50;;;2.10;99.90;;;;;;5074483;28;20420;-56
2023/02/26 02:15:21;;;;;;;1.00;0.50;;;2.00;99.90;;;;;;5074915;28;20777;-56
2023/02/26 02:17:56;;;;;;;1.60;0.40;;;2.10;99.90;;;;;;5075016;28;20431;-55
2023/02/26 02:21:01;;;;;;;0.75;0.40;;;2.20;99.90;;;;;;5075344;28;20779;-55
2023/02/26 02:23:37;;;;;;;0.90;0.40;;;2.20;99.90;;;;;;5073701;28;20723;-57
2023/02/26 02:26:33;;;;;;;2.20;0.50;;;2.60;99.90;;;;;;5073852;28;20431;-53
2023/02/26 02:29:26;;;;;;;0.73;0.43;;;2.60;99.90;;;;;;5049064;28;20419;-56
2023/02/26 02:31:57;;;;;;;1.08;0.50;;;2.40;99.90;;;;;;5073723;28;20847;-57
2023/02/26 02:34:30;;;;;;;0.75;0.50;;;2.50;99.90;;;;;;5073887;28;20454;-54
2023/02/26 02:37:01;;;;;;;0.70;0.50;;;2.50;99.90;;;;;;5073455;28;20420;-55
2023/02/26 02:39:31;;;;;;;0.77;0.40;;;2.30;99.90;;;;;;5074683;28;20473;-55
2023/02/26 02:42:03;;;;;;;0.80;0.50;;;2.20;99.90;;;;;;5073500;28;20418;-53
2023/02/26 02:44:34;;;;;;;1.58;0.50;;;2.00;99.90;;;;;;5072428;28;20480;-56
2023/02/26 02:47:04;;;;;;;1.20;0.50;;;2.00;99.90;;;;;;5072578;28;20428;-54
2023/02/26 02:49:36;;;;;;;0.60;0.40;;;2.00;99.90;;;;;;5073143;28;20423;-56
2023/02/26 02:52:12;;;;;;;0.75;0.40;;;2.10;99.90;;;;;;5073986;28;20419;-56
2023/02/26 02:54:45;;;;;;;1.00;0.40;;;2.20;99.90;;;;;;5073725;28;20432;-57
2023/02/26 02:57:17;;;;;;;2.00;0.50;;;2.20;99.90;;;;;;5074070;28;20514;-56
2023/02/26 02:59:47;;;;;;;1.30;0.50;;;2.00;99.90;;;;;;5074021;28;20435;-55
2023/02/26 03:02:21;;;;;;;0.70;0.50;;;1.80;99.90;;;;;;5072281;28;20423;-56
2023/02/26 03:04:48;;;;;;;1.23;0.60;;;1.80;99.90;;;;;;5074050;28;20431;-55
2023/02/26 03:07:16;;;;;;;0.90;0.50;;;1.70;99.90;;;;;;5073394;28;20412;-56
2023/02/26 03:09:43;;;;;;;0.85;0.50;;;1.60;99.90;;;;;;5073708;28;20428;-55
2023/02/26 03:12:11;;;;;;;0.95;0.50;;;1.60;99.90;;;;;;5077696;28;20423;-56
2023/02/26 03:14:38;;;;;;;0.90;0.50;;;1.50;99.90;;;;;;5077611;28;20438;-54
2023/02/26 03:17:15;;;;;;;0.90;0.50;;;1.50;99.90;;;;;;5077715;28;20423;-54
2023/02/26 03:19:56;;;;;;;0.70;0.40;;;1.70;99.90;;;;;;5076981;28;20854;-54
2023/02/26 03:22:29;;;;;;;0.77;0.40;;;1.90;99.90;;;;;;5076664;28;20419;-53
2023/02/26 03:25:00;;;;;;;0.60;0.40;;;2.00;99.90;;;;;;5077639;28;20440;-55
2023/02/26 03:27:33;;;;;;;1.50;0.40;;;2.00;99.90;;;;;;5077219;28;20706;-56
2023/02/26 03:30:05;;;;;;;1.40;0.50;;;2.20;99.90;;;;;;5076543;28;20918;-53
2023/02/26 03:32:41;;;;;;;1.30;0.50;;;2.20;99.90;;;;;;5076929;28;20727;-56
2023/02/26 03:35:14;;;;;;;0.60;0.40;;;2.50;99.90;;;;;;5076510;28;20947;-56
2023/02/26 03:37:45;;;;;;;0.70;0.40;;;2.60;99.90;;;;;;5076827;28;20438;-54
2023/02/26 03:40:17;;;;;;;1.00;0.45;;;2.40;99.90;;;;;;5078558;28;20427;-54
2023/02/26 03:42:50;;;;;;;0.70;0.40;;;2.10;99.90;;;;;;5078458;28;20735;-52
2023/02/26 03:45:23;;;;;;;1.30;0.50;;;2.00;99.90;;;;;;5077245;28;20517;-55
2023/02/26 03:47:53;;;;;;;2.13;0.50;;;2.10;99.90;;;;;;5077609;28;20469;-55
2023/02/26 03:50:27;;;;;;;0.75;0.40;;;2.10;99.90;;;;;;5077988;28;20733;-58
2023/02/26 03:52:55;;;;;;;1.33;0.50;;;1.80;99.90;;;;;;5078206;28;20419;-54
2023/02/26 03:55:29;;;;;;;1.23;0.40;;;1.70;99.90;;;;;;5078167;28;20428;-56
2023/02/26 03:57:56;;;;;;;1.00;0.40;;;1.80;99.90;;;;;;5077677;28;20428;-55
2023/02/26 04:00:23;;;;;;;1.60;0.40;;;1.90;99.90;;;;;;5076843;28;20427;-55
2023/02/26 04:02:58;;;;;;;0.80;0.40;;;2.00;99.90;;;;;;5076865;28;20415;-56
2023/02/26 04:05:29;;;;;;;0.90;0.50;;;2.30;99.90;;;;;;5077531;28;20423;-56
2023/02/26 04:07:57;;;;;;;1.15;0.50;;;2.40;99.90;;;;;;5077866;28;20735;-54
2023/02/26 04:10:32;;;;;;;1.30;0.50;;;2.50;99.90;;;;;;5077465;28;20739;-56
2023/02/26 04:13:00;;;;;;;1.00;0.50;;;2.40;99.90;;;;;;5077244;28;20423;-57
2023/02/26 04:15:27;;;;;;;1.50;0.50;;;2.30;99.90;;;;;;5077213;28;20438;-56
2023/02/26 04:17:54;;;;;;;0.70;0.40;;;2.20;99.90;;;;;;5077537;28;20716;-56
2023/02/26 04:20:22;;;;;;;0.90;0.50;;;2.10;99.90;;;;;;5076267;28;20952;-55
2023/02/26 04:22:50;;;;;;;0.80;0.50;;;2.20;99.90;;;;;;5075557;28;20510;-57
2023/02/26 04:25:17;;;;;;;0.68;0.40;;;2.10;99.90;;;;;;5076105;28;20431;-57
2023/02/26 04:27:44;;;;;;;1.52;0.50;;;2.00;99.90;;;;;;5074665;28;20433;-55
2023/02/26 04:30:12;;;;;;;2.40;0.50;;;1.70;99.90;;;;;;5075572;28;20435;-54
2023/02/26 04:32:39;;;;;;;0.93;0.40;;;1.50;99.90;;;;;;5075793;28;20716;-52
2023/02/26 04:35:07;;;;;;;0.77;0.40;;;1.40;99.90;;;;;;5075777;28;20431;-51
2023/02/26 04:37:34;;;;;;;1.38;0.45;;;1.30;99.90;;;;;;5075233;28;20419;-53
2023/02/26 04:40:03;;;;;;;0.80;0.50;;;1.30;99.90;;;;;;5073742;28;20427;-54
2023/02/26 04:42:30;;;;;;;1.90;0.50;;;1.50;99.90;;;;;;5075053;28;20726;-55
2023/02/26 04:44:57;;;;;;;2.30;0.50;;;1.80;99.90;;;;;;5075291;28;20446;-54
2023/02/26 04:47:25;;;;;;;0.80;0.50;;;1.90;99.90;;;;;;5074746;28;20420;-55
2023/02/26 04:49:52;;;;;;;1.80;0.60;;;2.00;99.90;;;;;;5075633;28;20432;-55
2023/02/26 04:52:19;;;;;;;1.65;0.50;;;2.10;99.90;;;;;;5076849;28;20855;-54
2023/02/26 04:54:46;;;;;;;0.85;0.40;;;2.00;99.90;;;;;;5076701;28;20424;-54
2023/02/26 04:57:14;;;;;;;1.00;0.50;;;2.00;99.90;;;;;;5076655;28;20423;-55
2023/02/26 04:59:41;;;;;;;1.50;0.45;;;1.80;99.90;;;;;;5076430;28;20444;-54
2023/02/26 05:02:09;;;;;;;1.03;0.50;;;1.80;99.90;;;;;;5076054;28;20476;-54
2023/02/26 05:04:36;;;;;;;1.13;0.47;;;1.70;99.90;;;;;;5076667;28;20430;-55
2023/02/26 05:07:03;;;;;;;1.13;0.50;;;1.80;99.90;;;;;;5076442;28;20420;-54
2023/02/26 05:09:30;;;;;;;0.70;0.40;;;2.00;99.90;;;;;;5076057;28;20751;-53
2023/02/26 05:11:58;;;;;;;0.80;0.40;;;2.10;99.90;;;;;;5076007;28;20720;-54
2023/02/26 05:14:26;;;;;;;1.20;0.50;;;2.20;99.90;;;;;;5076225;28;20431;-54
2023/02/26 05:16:53;;;;;;;0.93;0.50;;;2.00;99.90;;;;;;5076559;28;20427;-53
2023/02/26 05:19:20;;;;;;;1.05;0.40;;;2.00;99.90;;;;;;5076090;28;20442;-53
2023/02/26 05:21:48;;;;;;;0.90;0.47;;;1.70;99.90;;;;;;5076000;28;20735;-54
2023/02/26 05:24:15;;;;;;;1.40;0.60;;;1.70;99.90;;;;;;5076261;28;20432;-54
2023/02/26 05:26:42;;;;;;;0.93;0.50;;;1.80;99.90;;;;;;5076511;28;20426;-55
2023/02/26 05:29:09;;;;;;;1.10;0.40;;;1.80;99.90;;;;;;5076444;28;20897;-55
2023/02/26 05:31:37;;;;;;;1.80;0.50;;;2.00;99.90;;;;;;5076153;28;20717;-55
2023/02/26 05:34:05;;;;;;;0.90;0.50;;;1.90;99.90;;;;;;5075942;28;20427;-52
2023/02/26 05:36:32;;;;;;;1.35;0.50;;;1.80;99.90;;;;;;5076247;28;20420;-54
2023/02/26 05:38:59;;;;;;;2.17;0.57;;;1.80;99.90;;;;;;5075653;28;20791;-52
2023/02/26 05:41:26;;;;;;;1.50;0.50;;;1.70;99.90;;;;;;5075920;28;20423;-55
2023/02/26 05:43:53;;;;;;;1.92;0.40;;;1.60;99.90;;;;;;5075476;28;20476;-53
2023/02/26 05:46:20;;;;;;;2.30;0.50;;;1.50;99.90;;;;;;5075454;28;20423;-54
2023/02/26 05:48:48;;;;;;;1.30;0.50;;;1.40;99.90;;;;;;5075789;28;20824;-56
2023/02/26 05:51:15;;;;;;;0.98;0.40;;;1.50;99.90;;;;;;5075465;28;20431;-56
2023/02/26 05:53:42;;;;;;;1.27;0.50;;;1.40;99.90;;;;;;5075561;28;20420;-56
2023/02/26 05:56:10;;;;;;;1.20;0.40;;;1.40;99.90;;;;;;5075994;28;20446;-55
2023/02/26 05:58:37;;;;;;;0.70;0.50;;;1.50;99.90;;;;;;5075442;28;20423;-55
2023/02/26 06:01:04;;;;;;;1.10;0.50;;;1.60;99.90;;;;;;5075933;28;20438;-55
2023/02/26 06:03:31;;;;;;;0.90;0.50;;;1.60;99.90;;;;;;5075037;28;20845;-54
2023/02/26 06:06:00;;;;;;;1.00;0.50;;;1.60;99.90;;;;;;5075528;28;20420;-52
2023/02/26 06:08:27;;;;;;;0.60;0.40;;;1.60;99.90;;;;;;5074798;28;20423;-56
2023/02/26 06:10:54;;;;;;;1.08;0.52;;;1.70;99.90;;;;;;5074496;28;20427;-55
2023/02/26 06:13:22;;;;;;;1.40;0.60;;;1.60;99.90;;;;;;5074234;28;20732;-54
2023/02/26 06:15:51;;;;;;;1.40;0.50;;;1.50;99.90;;;;;;5073877;28;20463;-52
2023/02/26 06:18:18;;;;;;;1.27;0.50;;;1.40;99.90;;;;;;5073748;28;20439;-54
2023/02/26 06:20:45;;;;;;;1.20;0.50;;;1.30;99.90;;;;;;5074934;28;20522;-55
2023/02/26 06:23:14;;;;;;;1.00;0.60;;;1.20;99.90;;;;;;5075600;28;20720;-54
2023/02/26 06:25:41;;;;;;;1.30;0.80;;;1.20;99.90;;;;;;5075588;28;20431;-56
2023/02/26 06:28:09;;;;;;;0.90;0.50;;;1.30;99.90;;;;;;5074916;28;20502;-55
2023/02/26 06:30:36;;;;;;;1.13;0.50;;;1.20;99.90;;;;;;5075389;28;20716;-56
2023/02/26 06:33:03;;;;;;;0.80;0.50;;;1.00;99.90;;;;;;5075456;28;20424;-53
2023/02/26 06:35:30;;;;;;;1.00;0.60;;;1.10;99.90;;;;;;5075054;28;20435;-55
2023/02/26 06:37:57;;;;;;;1.40;0.50;;;0.90;99.90;;;;;;5074919;28;20449;-54
2023/02/26 06:40:26;;;;;;;1.30;0.63;;;0.60;99.90;;;;;;5075184;28;20493;-53
2023/02/26 06:42:53;;;;;;;1.52;0.60;;;0.60;99.90;;;;;;5075114;28;20415;-56
2023/02/26 06:45:20;;;;;;;0.90;0.60;;;0.70;99.90;;;;;;5074583;28;20427;-53
2023/02/26 06:47:47;;;;;;;1.25;0.60;;;0.90;99.90;;;;;;5074428;28;20794;-52
2023/02/26 06:50:14;;;;;;;1.50;0.73;;;1.10;99.90;;;;;;5075213;28;20866;-54
2023/02/26 06:52:42;;;;;;;1.02;0.60;;;1.10;99.90;;;;;;5074692;28;20466;-55
2023/02/26 06:55:10;;;;;;;1.30;0.60;;;1.10;99.90;;;;;;5074895;28;20791;-56
2023/02/26 06:57:38;;;;;;;2.10;0.50;;;1.20;99.90;;;;;;5074814;28;20836;-55
2023/02/26 07:00:08;;;;;;;2.20;0.60;;;1.40;99.90;;;;;;5074798;28;20432;-54
2023/02/26 07:02:35;;;;;;;1.70;0.60;;;1.20;99.90;;;;;;5073834;28;20427;-52
2023/02/26 07:05:02;;;;;;;1.05;0.60;;;1.20;99.90;;;;;;5074867;28;20435;-53
2023/02/26 07:07:29;;;;;;;2.25;0.60;;;1.20;99.90;;;;;;5074303;28;20411;-53
2023/02/26 07:09:56;;;;;;;1.23;0.60;;;1.20;99.90;;;;;;5073640;28;20424;-56
2023/02/26 07:12:23;;;;;;;1.40;0.50;;;1.30;99.90;;;;;;5073906;28;20855;-54
2023/02/26 07:14:52;;;;;;;0.95;0.50;;;1.60;99.90;;;;;;5073913;28;20427;-54
2023/02/26 07:17:20;;;;;;;1.10;0.50;;;1.70;99.90;;;;;;5074727;28;20442;-55
2023/02/26 07:19:47;;;;;;;2.20;0.60;;;1.50;99.90;;;;;;5074090;28;20471;-55
2023/02/26 07:22:15;;;;;;;2.50;0.70;;;1.30;99.90;;;;;;5073723;28;20709;-54
2023/02/26 07:24:42;;;;;;;1.50;0.50;;;1.20;99.90;;;;;;5073941;28;20450;-56
2023/02/26 07:27:09;;;;;;;0.90;0.50;;;1.10;99.90;;;;;;5073094;28;20434;-54
2023/02/26 07:29:37;;;;;;;1.00;0.43;;;0.90;99.90;;;;;;5073609;28;20831;-54
2023/02/26 07:32:06;;;;;;;1.20;0.50;;;0.90;99.90;;;;;;5074278;28;20419;-55
2023/02/26 07:34:33;;;;;;;1.30;0.50;;;1.20;99.90;;;;;;5072794;28;20827;-55
2023/02/26 07:37:00;;;;;;;2.90;0.60;;;1.20;99.90;;;;;;5073953;28;20424;-55
2023/02/26 07:39:27;;;;;;;0.80;0.60;;;1.50;99.90;;;;;;5073802;28;20487;-54
2023/02/26 07:41:54;;;;;;;1.07;0.60;;;1.70;99.90;;;;;;5074401;28;20854;-56
2023/02/26 07:44:21;;;;;;;1.30;0.50;;;1.70;99.90;;;;;;5074285;28;20846;-56
2023/02/26 07:46:49;;;;;;;1.40;0.50;;;1.70;99.90;;;;;;5073600;28;20420;-52
2023/02/26 07:49:17;;;;;;;0.90;0.55;;;1.70;99.90;;;;;;5073864;28;20428;-54
2023/02/26 07:51:44;;;;;;;1.40;0.50;;;1.90;99.90;;;;;;5072561;28;20558;-52
2023/02/26 07:54:12;;;;;;;1.30;0.50;;;1.80;99.90;;;;;;5072977;28;20423;-56
2023/02/26 07:56:40;;;;;;;1.20;0.60;;;1.80;99.90;;;;;;5072527;28;20730;-54
2023/02/26 07:59:07;;;;;;;0.80;0.50;;;1.70;99.90;;;;;;5075016;28;20434;-55
2023/02/26 08:01:34;;;;;;;1.50;0.50;;;1.70;99.90;;;;;;5075667;28;20427;-55
2023/02/26 08:04:01;;;;;;;1.60;0.50;;;1.50;99.90;;;;;;5073469;28;20921;-52
2023/02/26 08:06:30;;;;;;;1.60;0.45;;;1.50;99.90;;;;;;5075587;28;20423;-55
2023/02/26 08:08:57;;;;;;;1.02;0.40;;;1.30;99.90;;;;;;5074388;28;20422;-52
2023/02/26 08:11:24;;;;;;;0.80;0.50;;;1.50;99.90;;;;;;5075780;28;20426;-57
2023/02/26 08:13:51;;;;;;;2.92;0.40;;;1.70;99.90;;;;;;5076351;28;20419;-53
2023/02/26 08:16:18;;;;;;;0.90;0.50;;;1.50;99.90;;;;;;5075173;28;20420;-51
2023/02/26 08:18:45;;;;;;;0.80;0.40;;;1.60;99.90;;;;;;5074786;28;20676;-56
2023/02/26 08:21:12;;;;;;;0.90;0.50;;;1.60;99.90;;;;;;5074450;28;20857;-54
2023/02/26 08:23:41;;;;;;;0.90;0.50;;;1.70;99.90;;;;;;5073617;28;20449;-49
2023/02/26 08:26:11;;;;;;;0.90;0.50;;;1.70;99.90;;;;;;5075324;28;20496;-59
2023/02/26 08:28:38;;;;;;;1.70;0.50;;;1.90;99.90;;;;;;5074087;28;20918;-55
2023/02/26 08:31:06;;;;;;;0.80;0.40;;;2.00;99.90;;;;;;5075525;28;20454;-52
2023/02/26 08:33:34;;;;;;;1.08;0.40;;;1.70;99.90;;;;;;5076291;28;20434;-54
2023/02/26 08:36:01;;;;;;;0.80;0.40;;;1.60;99.90;;;;;;5076468;28;20878;-55
2023/02/26 08:38:29;;;;;;;0.90;0.40;;;1.80;99.90;;;;;;5074130;28;20854;-55
2023/02/26 08:40:57;;;;;;;1.10;0.40;;;2.10;99.90;;;;;;5072479;28;20497;-55
2023/02/26 08:43:25;;;;;;;1.00;0.40;;;2.10;99.90;;;;;;5055010;28;20426;-55
2023/02/26 08:45:53;;;;;;;1.50;0.50;;;1.80;99.90;;;;;;5061928;28;20420;-51
2023/02/26 08:48:20;;;;;;;0.80;0.40;;;1.80;99.90;;;;;;5075083;28;20459;-54
2023/02/26 08:50:47;;;;;;;0.80;0.43;;;1.80;99.90;;;;;;5075476;28;20424;-51
2023/02/26 08:53:15;;;;;;;1.60;0.50;;;1.50;99.90;;;;;;5075072;28;20416;-55
2023/02/26 08:55:43;;;;;;;0.85;0.40;;;1.30;99.90;;;;;;5075120;28;20435;-55
2023/02/26 08:58:12;;;;;;;1.20;0.50;;;1.30;99.90;;;;;;5075375;28;20424;-55
2023/02/26 09:00:39;;;;;;;1.23;0.40;;;1.40;99.90;;;;;;5076662;28;20720;-51
2023/02/26 09:03:06;;;;;;;0.50;0.40;;;1.50;99.90;;;;;;5076005;28;20861;-53
2023/02/26 09:05:33;;;;;;;0.75;0.40;;;1.70;99.90;;;;;;5076730;28;20492;-52
2023/02/26 09:08:00;;;;;;;0.75;0.40;;;1.80;99.90;;;;;;5075185;28;20431;-55
2023/02/26 09:10:27;;;;;;;1.33;0.40;;;1.90;99.90;;;;;;5076515;28;20727;-51
2023/02/26 09:12:55;;;;;;;0.60;0.40;;;2.00;99.90;;;;;;5074250;28;20759;-53
2023/02/26 09:15:23;;;;;;;0.60;0.40;;;2.10;99.90;;;;;;5074336;28;20762;-51
2023/02/26 09:17:51;;;;;;;0.70;0.40;;;2.30;99.90;;;;;;5074769;28;20428;-54
2023/02/26 09:20:18;;;;;;;0.75;0.40;;;2.20;99.90;;;;;;5073558;28;20470;-51
2023/02/26 09:22:45;;;;;;;2.13;0.47;;;2.30;99.90;;;;;;5073697;28;20514;-49
2023/02/26 09:25:12;;;;;;;0.63;0.32;;;2.20;99.90;;;;;;5075670;28;20905;-53
2023/02/26 09:27:40;;;;;;;0.80;0.40;;;1.90;99.90;;;;;;5074158;28;20803;-51
2023/02/26 09:30:08;;;;;;;1.70;0.40;;;1.90;99.90;;;;;;5074504;28;20451;-55
2023/02/26 09:32:36;;;;;;;0.70;0.32;;;1.90;99.90;;;;;;5075182;28;20498;-53
2023/02/26 09:35:04;;;;;;;1.00;0.30;;;1.90;99.90;;;;;;5074623;28;20728;-54
2023/02/26 09:37:31;;;;;;;0.60;0.40;;;2.00;99.90;;;;;;5070768;28;20414;-54
2023/02/26 09:39:59;;;;;;;0.60;0.30;;;2.00;99.90;;;;;;5073316;28;20466;-55
2023/02/26 09:42:37;;;;;;;0.70;0.40;;;1.70;99.90;;;;;;5081006;28;20420;-53
2023/02/26 09:45:09;;;;;;;0.70;0.40;;;1.90;99.90;;;;;;5087788;28;20429;-52
2023/02/26 09:47:45;;;;;;;1.05;0.40;;;1.90;99.90;;;;;;5093073;28;20518;-51
2023/02/26 09:50:17;;;;;;;0.68;0.40;;;2.10;99.90;;;;;;5093099;28;20426;-55
2023/02/26 09:52:50;;;;;;;0.52;0.35;;;2.10;99.90;;;;;;5092861;28;20418;-55
2023/02/26 09:55:24;;;;;;;0.80;0.50;;;1.90;99.90;;;;;;5093852;28;20502;-53
2023/02/26 09:57:56;;;;;;;0.60;0.40;;;1.80;99.90;;;;;;5095152;28;20414;-51
2023/02/26 10:00:29;;;;;;;0.88;0.40;;;1.60;99.90;;;;;;5095365;28;20438;-54
2023/02/26 10:03:10;;;;;;;0.80;0.50;;;1.80;99.90;;;;;;5094869;28;20865;-56
2023/02/26 10:05:43;;;;;;;0.90;0.40;;;2.20;99.90;;;;;;5095293;28;20425;-53
2023/02/26 10:08:15;;;;;;;0.90;0.40;;;2.00;99.90;;;;;;5094362;28;20418;-51
2023/02/26 10:10:50;;;;;;;1.30;0.40;;;1.90;99.90;;;;;;5094909;28;20422;-56
2023/02/26 10:13:25;;;;;;;1.20;0.40;;;2.00;99.90;;;;;;5092942;28;20499;-57
2023/02/26 10:15:56;;;;;;;1.40;0.40;;;1.80;99.90;;;;;;5093882;28;20501;-56
2023/02/26 10:18:30;;;;;;;1.70;0.40;;;1.80;99.90;;;;;;5093568;28;20722;-53
2023/02/26 10:21:02;;;;;;;0.50;0.40;;;1.90;99.90;;;;;;5093118;28;20426;-56
2023/02/26 10:23:35;;;;;;;1.00;0.40;;;2.10;99.90;;;;;;5093505;28;20499;-53
2023/02/26 10:26:07;;;;;;;1.60;0.40;;;2.10;99.90;;;;;;5094256;28;20426;-53
2023/02/26 10:28:48;;;;;;;0.90;0.50;;;2.00;99.90;;;;;;5094921;28;20425;-58
2023/02/26 10:31:23;;;;;;;0.80;0.40;;;1.90;99.90;;;;;;5095511;28;20418;-52
2023/02/26 10:33:59;;;;;;;0.73;0.40;;;1.90;99.90;;;;;;5093430;28;20502;-53
2023/02/26 10:36:30;;;;;;;0.90;0.40;;;2.10;99.90;;;;;;5093897;28;20421;-50
2023/02/26 10:39:03;;;;;;;0.70;0.33;;;2.20;99.90;;;;;;5092969;28;20421;-53
2023/02/26 10:41:34;;;;;;;0.73;0.40;;;2.30;99.90;;;;;;5093417;28;21121;-53
2023/02/26 10:44:09;;;;;;;0.60;0.40;;;2.40;99.90;;;;;;5091982;28;20424;-51
2023/02/26 10:46:46;;;;;;;0.98;0.50;;;2.10;99.90;;;;;;5092293;28;20702;-53
2023/02/26 10:49:46;;;;;;;0.85;0.47;;;2.30;99.90;;;;;;5092151;28;21080;-55
2023/02/26 10:52:18;;;;;;;0.70;0.40;;;2.20;99.90;;;;;;5093462;28;20421;-54
2023/02/26 10:54:54;;;;;;;0.90;0.50;;;2.10;99.90;;;;;;5093581;28;20426;-55
2023/02/26 10:57:27;;;;;;;0.70;0.40;;;2.00;99.90;;;;;;5092233;28;20825;-56
2023/02/26 10:59:54;;;;;;;0.70;0.40;;;2.30;99.90;;;;;;5093883;28;20434;-52
2023/02/26 11:02:36;;;;;;;2.08;0.30;;;2.50;99.90;;;;;;5093859;28;20410;-54
2023/02/26 11:05:07;;;;;;;0.60;0.40;;;2.60;99.90;;;;;;5093231;28;20428;-51
2023/02/26 11:07:37;;;;;;;0.80;0.40;;;2.70;99.90;;;;;;5093749;28;20422;-55
2023/02/26 11:10:12;;;;;;;0.60;0.40;;;2.70;99.90;;;;;;5094715;28;20432;-55
2023/02/26 11:12:39;;;;;;;1.00;0.40;;;2.90;99.90;;;;;;5093071;28;20409;-53
2023/02/26 11:15:12;;;;;;;0.82;0.40;;;2.70;99.90;;;;;;5094686;28;20429;-55
2023/02/26 11:17:39;;;;;;;0.60;0.35;;;2.50;99.90;;;;;;5093947;28;20445;-53
2023/02/26 11:20:17;;;;;;;1.10;0.40;;;2.50;99.90;;;;;;5092336;28;20433;-55
2023/02/26 11:22:56;;;;;;;0.80;0.40;;;2.40;99.90;;;;;;5093750;28;20825;-55
2023/02/26 11:25:27;;;;;;;0.63;0.40;;;2.50;99.90;;;;;;5092974;28;20494;-53
2023/02/26 11:28:00;;;;;;;0.70;0.40;;;2.70;99.90;;;;;;5092078;28;20465;-54
2023/02/26 11:30:30;;;;;;;1.40;0.40;;;2.80;99.90;;;;;;5091343;28;20869;-55
2023/02/26 11:32:59;;;;;;;0.60;0.38;;;2.90;99.90;;;;;;5096046;28;20417;-55
2023/02/26 11:35:27;;;;;;;0.63;0.40;;;3.10;99.90;;;;;;5096686;28;20429;-55
2023/02/26 11:37:58;;;;;;;0.60;0.40;;;2.90;99.90;;;;;;5096645;28;20421;-54
2023/02/26 11:40:35;;;;;;;0.70;0.40;;;2.70;99.90;;;;;;5096716;28;20430;-55
2023/02/26 11:43:05;;;;;;;0.90;0.40;;;2.70;99.90;;;;;;5095828;28;20432;-54
2023/02/26 11:45:35;;;;;;;0.50;0.40;;;2.70;99.90;;;;;;5095901;28;21041;-54
2023/02/26 11:48:05;;;;;;;0.60;0.40;;;2.80;99.90;;;;;;5095382;28;20472;-54
2023/02/26 11:50:41;;;;;;;0.93;0.45;;;3.00;99.90;;;;;;5094456;28;20421;-54
2023/02/26 11:53:17;;;;;;;0.60;0.40;;;3.10;99.90;;;;;;5095102;28;20450;-55
2023/02/26 11:55:47;;;;;;;0.50;0.30;;;3.20;99.90;;;;;;5094817;28;20429;-52
2023/02/26 11:58:20;;;;;;;1.00;0.35;;;3.10;99.90;;;;;;5094963;28;20474;-53
2023/02/26 12:00:49;;;;;;;0.60;0.40;;;3.20;99.90;;;;;;5094816;28;20441;-54
2023/02/26 12:03:18;;;;;;;0.40;0.30;;;3.10;99.90;;;;;;5094550;28;20702;-54
2023/02/26 12:05:47;;;;;;;0.50;0.30;;;3.00;99.90;;;;;;5095095;28;20429;-55
2023/02/26 12:08:20;;;;;;;0.70;0.30;;;3.20;99.90;;;;;;5094624;28;20421;-53
2023/02/26 12:11:01;;;;;;;0.50;0.30;;;3.20;99.90;;;;;;5096348;28;20425;-53
2023/02/26 12:13:34;;;;;;;0.50;0.30;;;3.10;99.90;;;;;;5095847;28;20717;-52
2023/02/26 12:16:09;;;;;;;0.50;0.30;;;3.00;99.90;;;;;;5094976;28;20418;-55
2023/02/26 12:18:59;;;;;;;0.50;0.30;;;3.10;99.90;;;;;;5094359;28;20710;-54
2023/02/26 12:21:51;;;;;;;0.60;0.40;;;2.90;99.90;;;;;;5097751;28;20428;-54
2023/02/26 12:24:37;;;;;;;0.60;0.40;;;3.00;99.90;;;;;;5088098;28;20503;-52
2023/02/26 12:27:14;;;;;;;0.70;0.30;;;3.00;99.90;;;;;;5095570;28;20418;-55
2023/02/26 12:30:07;;;;;;;0.50;0.40;;;2.90;99.90;;;;;;5095731;28;20425;-54
2023/02/26 12:32:50;;;;;;;0.60;0.30;;;3.00;99.90;;;;;;5090617;28;20421;-55
2023/02/26 12:35:39;;;;;;;0.50;0.30;;;3.00;99.90;;;;;;5095954;28;20429;-53
2023/02/26 12:38:21;;;;;;;0.50;0.30;;;3.00;99.90;;;;;;5085606;28;20426;-55
2023/02/26 12:41:03;;;;;;;0.70;0.40;;;3.00;99.90;;;;;;5094419;28;20429;-56
2023/02/26 12:43:39;;;;;;;0.90;0.40;;;2.90;99.90;;;;;;5092000;28;20417;-52
2023/02/26 12:46:16;;;;;;;0.60;0.30;;;2.70;99.90;;;;;;5092264;28;20433;-54
2023/02/26 12:48:59;;;;;;;0.57;0.30;;;2.70;99.90;;;;;;5092093;28;20725;-50
2023/02/26 12:51:48;;;;;;;0.60;0.40;;;2.80;99.90;;;;;;5092730;28;20777;-52
2023/02/26 12:54:33;;;;;;;0.75;0.30;;;2.90;99.90;;;;;;5092337;28;20426;-51
2023/02/26 12:57:23;;;;;;;0.82;0.40;;;3.10;99.90;;;;;;5084853;28;20426;-55
2023/02/26 13:00:12;;;;;;;0.80;0.40;;;3.10;99.90;;;;;;5091409;28;20438;-52
2023/02/26 13:03:20;;;;;;;1.00;0.30;;;3.20;99.90;;;;;;5095471;28;20410;-51
2023/02/26 13:06:12;;;;;;;0.60;0.40;;;3.30;99.90;;;;;;5095321;28;20424;-51
2023/02/26 13:08:46;;;;;;;0.60;0.30;;;3.40;99.90;;;;;;5077413;28;20422;-51
2023/02/26 13:11:25;;;;;;;0.60;0.30;;;3.50;99.90;;;;;;5094145;28;20426;-53
2023/02/26 13:14:04;;;;;;;0.60;0.30;;;3.40;99.90;;;;;;5094905;28;20444;-56
2023/02/26 13:16:44;;;;;;;0.50;0.30;;;3.40;99.90;;;;;;5094121;28;20714;-54
2023/02/26 13:19:26;;;;;;;0.50;0.30;;;3.40;99.90;;;;;;5093551;28;20425;-54